Time;durP1;ratioP1;P1;durP2;ratioP2;P2;SDS_P1;SDS_P2;PMS_P1;PMS_P2;Temp;Humidity;BMP_temperature;BMP_pressure;BME280_temperature;BME280_humidity;BME280_pressure;Samples;Min_cycle;Max_cycle;Signal;HPM_P1;HPM_P2
2021/01/22 00:00:00;;;;;;;0.60;0.60;;;11.90;47.20;;;;;;5034336;28;20216;-79
2021/01/22 00:02:26;;;;;;;1.10;0.40;;;11.80;47.40;;;;;;5031788;28;20216;-80
2021/01/22 00:04:53;;;;;;;0.40;0.40;;;11.80;47.20;;;;;;5024988;28;20208;-80
2021/01/22 00:07:20;;;;;;;0.47;0.40;;;11.80;46.90;;;;;;5022520;28;20802;-79
2021/01/22 00:09:47;;;;;;;1.00;0.32;;;11.80;46.50;;;;;;5025050;28;20274;-79
2021/01/22 00:12:13;;;;;;;0.77;0.40;;;11.90;46.40;;;;;;5027712;28;20239;-80
2021/01/22 00:14:40;;;;;;;0.40;0.40;;;11.80;46.60;;;;;;5025820;28;20478;-80
2021/01/22 00:17:06;;;;;;;0.40;0.40;;;11.80;46.50;;;;;;5026729;28;20223;-79
2021/01/22 00:19:33;;;;;;;0.68;0.35;;;11.80;47.30;;;;;;5027451;28;20280;-79
2021/01/22 00:21:59;;;;;;;0.52;0.52;;;11.80;48.10;;;;;;5026674;28;20765;-78
2021/01/22 00:24:27;;;;;;;0.60;0.40;;;11.70;49.20;;;;;;5028631;28;20235;-79
2021/01/22 00:26:53;;;;;;;0.50;0.47;;;11.60;50.70;;;;;;5033991;28;20220;-79
2021/01/22 00:29:20;;;;;;;1.20;0.50;;;11.60;51.50;;;;;;5037529;28;20203;-78
2021/01/22 00:31:46;;;;;;;0.60;0.52;;;11.60;51.40;;;;;;5036989;28;20234;-79
2021/01/22 00:34:12;;;;;;;0.70;0.50;;;11.60;50.70;;;;;;5037011;28;20204;-79
2021/01/22 00:36:39;;;;;;;0.75;0.60;;;11.50;50.60;;;;;;5036522;28;20219;-79
2021/01/22 00:39:06;;;;;;;0.60;0.50;;;11.40;52.20;;;;;;5028392;28;20684;-78
2021/01/22 00:41:33;;;;;;;0.90;0.57;;;11.30;53.90;;;;;;5023612;28;20790;-79
2021/01/22 00:44:00;;;;;;;0.90;0.77;;;11.10;56.40;;;;;;5029490;28;20208;-79
2021/01/22 00:46:27;;;;;;;0.50;0.50;;;10.90;59.50;;;;;;5034659;28;20219;-78
2021/01/22 00:48:53;;;;;;;0.80;0.60;;;10.70;61.50;;;;;;5035959;28;20207;-78
2021/01/22 00:51:19;;;;;;;2.08;0.63;;;10.40;63.90;;;;;;5036526;28;20243;-80
2021/01/22 00:53:46;;;;;;;0.55;0.50;;;10.20;67.70;;;;;;5037238;28;20242;-80
2021/01/22 00:56:12;;;;;;;0.65;0.60;;;10.00;69.70;;;;;;5038684;28;20192;-79
2021/01/22 00:58:40;;;;;;;0.43;0.43;;;9.90;72.30;;;;;;5040286;28;20223;-77
2021/01/22 01:01:06;;;;;;;2.08;0.80;;;9.70;73.70;;;;;;5039574;28;20255;-77
2021/01/22 01:03:33;;;;;;;1.40;0.60;;;9.50;75.20;;;;;;5038644;28;20635;-79
2021/01/22 01:05:59;;;;;;;1.92;0.85;;;9.50;76.80;;;;;;5031292;28;20255;-78
2021/01/22 01:08:25;;;;;;;0.70;0.68;;;9.50;76.00;;;;;;5037021;28;20413;-79
2021/01/22 01:10:52;;;;;;;1.33;1.10;;;9.50;75.40;;;;;;5035071;28;20212;-79
2021/01/22 01:13:18;;;;;;;0.77;0.77;;;9.50;75.20;;;;;;5033539;28;20204;-79
2021/01/22 01:15:46;;;;;;;0.95;0.80;;;9.60;74.20;;;;;;5029393;28;20247;-79
2021/01/22 01:18:12;;;;;;;1.25;0.90;;;9.80;71.60;;;;;;5018463;28;20211;-78
2021/01/22 01:20:38;;;;;;;1.38;0.90;;;9.80;70.40;;;;;;5019031;28;20263;-79
2021/01/22 01:23:10;;;;;;;0.95;0.85;;;9.80;69.80;;;;;;5021406;28;20213;-79
2021/01/22 01:25:37;;;;;;;0.70;0.70;;;10.00;67.60;;;;;;5033697;28;20211;-79
2021/01/22 01:28:03;;;;;;;2.35;1.00;;;10.10;66.00;;;;;;5035413;28;20289;-79
2021/01/22 01:30:30;;;;;;;1.35;0.90;;;10.30;64.30;;;;;;5034117;28;20270;-78
2021/01/22 01:32:57;;;;;;;1.65;1.27;;;10.50;62.40;;;;;;5032471;28;20220;-79
2021/01/22 01:35:23;;;;;;;1.00;0.98;;;10.60;61.60;;;;;;5027772;28;20227;-78
2021/01/22 01:37:50;;;;;;;1.90;0.80;;;10.80;59.40;;;;;;5034403;28;20295;-78
2021/01/22 01:40:16;;;;;;;0.90;0.73;;;10.90;58.50;;;;;;5027024;28;20212;-79
2021/01/22 01:42:43;;;;;;;1.10;1.00;;;11.00;57.00;;;;;;5016516;28;20295;-79
2021/01/22 01:45:10;;;;;;;1.15;0.85;;;11.10;56.60;;;;;;5016869;28;20291;-78
2021/01/22 01:47:36;;;;;;;1.13;0.68;;;11.10;55.50;;;;;;5018904;28;20228;-80
2021/01/22 01:50:05;;;;;;;1.67;0.80;;;11.20;54.90;;;;;;5027365;28;20196;-79
2021/01/22 01:52:32;;;;;;;1.90;1.13;;;11.20;54.50;;;;;;5035444;28;20202;-80
2021/01/22 01:54:59;;;;;;;1.60;0.93;;;11.30;53.40;;;;;;5034978;28;20373;-78
2021/01/22 01:57:25;;;;;;;0.80;0.70;;;11.30;52.60;;;;;;5035197;28;20196;-78
2021/01/22 01:59:52;;;;;;;1.65;1.08;;;11.30;52.50;;;;;;5032259;28;20207;-79
2021/01/22 02:02:21;;;;;;;3.60;1.17;;;11.30;52.10;;;;;;5030952;28;20255;-80
2021/01/22 02:04:47;;;;;;;4.20;1.00;;;11.30;51.70;;;;;;5031692;28;20215;-78
2021/01/22 02:07:14;;;;;;;1.00;0.95;;;11.40;51.20;;;;;;5021091;28;20622;-79
2021/01/22 02:09:41;;;;;;;1.50;1.10;;;11.40;50.50;;;;;;5028827;28;20222;-78
2021/01/22 02:12:10;;;;;;;1.90;0.60;;;11.50;50.60;;;;;;5017133;28;20285;-77
2021/01/22 02:14:36;;;;;;;1.33;1.00;;;11.60;50.70;;;;;;5016203;28;20211;-77
2021/01/22 02:17:04;;;;;;;5.05;0.80;;;11.70;49.50;;;;;;5016895;28;20302;-79
2021/01/22 02:19:43;;;;;;;2.05;1.00;;;11.70;49.10;;;;;;5018677;28;20688;-79
2021/01/22 02:22:09;;;;;;;1.20;0.85;;;11.70;49.10;;;;;;5018952;28;20789;-79
2021/01/22 02:24:39;;;;;;;3.03;0.95;;;11.70;48.70;;;;;;5016194;28;20450;-77
2021/01/22 02:27:06;;;;;;;0.90;0.80;;;11.90;47.50;;;;;;5016464;28;20266;-78
2021/01/22 02:29:37;;;;;;;3.28;1.33;;;11.90;46.60;;;;;;5019916;28;20208;-79
2021/01/22 02:32:06;;;;;;;2.22;1.20;;;11.90;46.20;;;;;;5018455;28;20310;-76
2021/01/22 02:34:37;;;;;;;2.28;1.00;;;11.90;45.90;;;;;;5021223;28;20208;-78
2021/01/22 02:37:06;;;;;;;2.13;0.90;;;11.90;45.20;;;;;;5021078;28;20234;-81
2021/01/22 02:39:34;;;;;;;3.75;0.77;;;11.90;45.60;;;;;;5022516;28;20231;-78
2021/01/22 02:42:02;;;;;;;2.42;1.30;;;12.00;45.20;;;;;;5019607;28;20223;-79
2021/01/22 02:44:31;;;;;;;3.58;1.23;;;12.00;45.20;;;;;;5019388;28;20668;-82
2021/01/22 02:46:59;;;;;;;2.50;1.20;;;12.00;44.80;;;;;;5022678;28;20227;-78
2021/01/22 02:49:26;;;;;;;4.47;1.73;;;12.00;45.30;;;;;;5028658;28;20683;-78
2021/01/22 02:51:52;;;;;;;3.97;1.05;;;12.00;44.70;;;;;;5028887;28;20224;-77
2021/01/22 02:54:19;;;;;;;2.30;1.02;;;12.00;44.00;;;;;;5032799;28;20231;-78
2021/01/22 02:56:52;;;;;;;1.63;1.08;;;12.10;43.00;;;;;;5027917;28;20214;-78
2021/01/22 02:59:39;;;;;;;5.47;1.10;;;12.20;42.60;;;;;;5023456;28;20208;-78
2021/01/22 03:02:13;;;;;;;3.60;0.80;;;12.20;42.90;;;;;;5019843;28;20779;-78
2021/01/22 03:04:41;;;;;;;3.90;1.20;;;12.10;42.60;;;;;;5018751;28;20188;-80
2021/01/22 03:07:10;;;;;;;3.75;1.67;;;12.10;43.10;;;;;;5028905;28;20237;-80
2021/01/22 03:09:42;;;;;;;3.13;1.15;;;12.10;43.00;;;;;;5032464;28;20271;-78
2021/01/22 03:12:10;;;;;;;1.65;0.80;;;12.00;42.80;;;;;;5029366;28;20228;-81
2021/01/22 03:14:39;;;;;;;5.20;1.23;;;12.00;43.20;;;;;;5027263;28;20214;-79
2021/01/22 03:17:06;;;;;;;4.25;1.05;;;12.00;42.90;;;;;;5025247;28;20269;-79
2021/01/22 03:19:42;;;;;;;1.92;0.85;;;12.00;43.00;;;;;;5021045;28;20215;-79
2021/01/22 03:22:08;;;;;;;2.42;1.60;;;12.00;42.40;;;;;;5023741;28;20711;-78
2021/01/22 03:24:35;;;;;;;1.73;0.88;;;12.00;42.50;;;;;;5030339;28;20238;-78
2021/01/22 03:27:01;;;;;;;1.35;1.05;;;12.10;43.00;;;;;;5027783;28;20251;-76
2021/01/22 03:29:28;;;;;;;3.35;1.70;;;12.00;42.80;;;;;;5033238;28;20239;-77
2021/01/22 03:31:57;;;;;;;4.45;1.02;;;12.00;43.00;;;;;;5031501;28;20294;-76
2021/01/22 03:34:26;;;;;;;1.85;0.85;;;12.00;43.00;;;;;;5029096;28;20318;-78
2021/01/22 03:36:53;;;;;;;4.68;0.70;;;12.00;43.30;;;;;;5030450;28;20219;-77
2021/01/22 03:39:20;;;;;;;6.00;1.10;;;12.00;42.90;;;;;;5035311;28;20255;-75
2021/01/22 03:41:46;;;;;;;3.90;0.73;;;12.10;42.30;;;;;;5035829;28;20228;-78
2021/01/22 03:44:13;;;;;;;1.98;0.85;;;12.10;42.30;;;;;;5034672;28;20207;-78
2021/01/22 03:46:39;;;;;;;2.00;1.42;;;12.10;42.50;;;;;;5028869;28;20203;-78
2021/01/22 03:49:06;;;;;;;4.10;1.63;;;12.10;42.00;;;;;;5026607;28;20599;-81
2021/01/22 03:51:33;;;;;;;2.85;0.90;;;12.10;42.80;;;;;;5021585;28;20315;-76
2021/01/22 03:53:59;;;;;;;2.67;0.93;;;12.00;42.30;;;;;;5027470;28;20208;-78
2021/01/22 03:56:26;;;;;;;1.65;0.80;;;12.10;42.50;;;;;;5018317;28;20218;-79
2021/01/22 03:58:52;;;;;;;2.50;0.80;;;12.10;42.80;;;;;;5018504;28;20200;-81
2021/01/22 04:01:19;;;;;;;7.95;1.10;;;12.10;42.80;;;;;;5018530;28;20224;-80
2021/01/22 04:03:46;;;;;;;4.65;1.20;;;12.00;43.50;;;;;;5019172;28;20670;-80
2021/01/22 04:06:13;;;;;;;3.45;1.08;;;12.00;43.30;;;;;;5019991;28;20207;-79
2021/01/22 04:08:39;;;;;;;2.33;1.17;;;12.00;43.00;;;;;;5024868;28;20232;-78
2021/01/22 04:11:06;;;;;;;3.75;1.20;;;12.10;43.10;;;;;;5028960;28;20227;-76
2021/01/22 04:13:33;;;;;;;2.45;1.00;;;12.00;43.10;;;;;;5032935;28;20218;-76
2021/01/22 04:15:59;;;;;;;1.85;0.60;;;11.90;43.20;;;;;;5032983;28;20222;-78
2021/01/22 04:18:25;;;;;;;1.15;0.90;;;12.00;43.30;;;;;;5035713;28;20216;-76
2021/01/22 04:20:52;;;;;;;2.75;0.90;;;11.90;43.30;;;;;;5035416;28;20243;-77
2021/01/22 04:23:19;;;;;;;1.33;0.90;;;12.00;42.90;;;;;;5034805;28;20207;-79
2021/01/22 04:25:46;;;;;;;3.08;0.98;;;11.90;43.30;;;;;;5036345;28;20241;-79
2021/01/22 04:28:12;;;;;;;1.60;0.80;;;11.90;43.60;;;;;;5038474;28;20263;-78
2021/01/22 04:30:39;;;;;;;0.65;0.60;;;11.90;44.00;;;;;;5039103;28;20228;-75
2021/01/22 04:33:05;;;;;;;1.27;0.68;;;11.90;43.50;;;;;;5030541;28;20207;-79
2021/01/22 04:35:32;;;;;;;0.80;0.60;;;11.90;43.60;;;;;;5022845;28;20215;-78
2021/01/22 04:37:59;;;;;;;1.45;0.77;;;11.90;43.60;;;;;;5023246;28;20207;-77
2021/01/22 04:40:26;;;;;;;3.60;1.10;;;11.90;43.30;;;;;;5029586;28;20318;-79
2021/01/22 04:42:53;;;;;;;1.85;0.65;;;12.00;43.30;;;;;;5022327;28;20214;-78
2021/01/22 04:45:20;;;;;;;0.80;0.75;;;12.00;43.50;;;;;;5025630;28;20214;-78
2021/01/22 04:47:46;;;;;;;2.83;1.00;;;12.00;43.10;;;;;;5032864;28;20231;-79
2021/01/22 04:50:15;;;;;;;1.25;1.08;;;12.00;43.20;;;;;;5033434;28;20215;-78
2021/01/22 04:52:43;;;;;;;3.30;0.75;;;12.00;42.90;;;;;;5036860;28;20225;-79
2021/01/22 04:55:13;;;;;;;1.65;0.82;;;12.10;42.70;;;;;;5051510;23;20706;-75
2021/01/22 04:57:42;;;;;;;1.92;0.95;;;12.00;42.90;;;;;;5030055;28;20210;-74
2021/01/22 05:00:09;;;;;;;4.03;1.25;;;12.00;43.70;;;;;;5020828;28;20291;-73
2021/01/22 05:02:36;;;;;;;1.67;0.70;;;12.00;43.10;;;;;;5026868;28;20285;-78
2021/01/22 05:05:04;;;;;;;2.90;0.93;;;12.00;43.40;;;;;;5037872;28;20235;-81
2021/01/22 05:07:30;;;;;;;2.58;1.13;;;12.00;43.30;;;;;;5038754;28;20211;-82
2021/01/22 05:09:57;;;;;;;2.53;0.90;;;12.00;43.40;;;;;;5037870;28;20205;-76
2021/01/22 05:12:23;;;;;;;2.20;0.82;;;12.00;42.80;;;;;;5037578;28;20212;-76
2021/01/22 05:14:51;;;;;;;4.55;1.05;;;12.00;42.70;;;;;;5034988;28;20228;-77
2021/01/22 05:17:17;;;;;;;0.85;0.85;;;12.10;42.70;;;;;;5038540;28;20195;-77
2021/01/22 05:19:44;;;;;;;1.05;0.90;;;12.00;43.50;;;;;;5035038;28;20230;-75
2021/01/22 05:22:14;;;;;;;1.52;0.77;;;12.00;44.40;;;;;;5036986;28;20216;-76
2021/01/22 05:24:41;;;;;;;0.90;0.70;;;11.90;44.40;;;;;;5027364;28;20235;-77
2021/01/22 05:27:11;;;;;;;3.40;1.23;;;11.90;44.70;;;;;;5018160;28;20667;-79
2021/01/22 05:29:38;;;;;;;2.25;0.90;;;11.90;44.60;;;;;;5019714;28;20217;-76
2021/01/22 05:32:25;;;;;;;1.30;0.95;;;11.90;45.20;;;;;;5016818;28;20298;-77
2021/01/22 05:34:51;;;;;;;1.85;0.80;;;11.80;46.20;;;;;;5014765;28;20315;-76
2021/01/22 05:37:18;;;;;;;3.15;0.95;;;11.70;48.10;;;;;;5013583;28;20823;-76
2021/01/22 05:39:44;;;;;;;1.85;0.70;;;11.50;49.90;;;;;;5014609;28;20271;-74
2021/01/22 05:42:12;;;;;;;1.67;0.65;;;11.40;50.00;;;;;;5013794;28;20208;-74
2021/01/22 05:44:52;;;;;;;0.85;0.85;;;11.30;49.80;;;;;;5013503;28;20644;-74
2021/01/22 05:47:18;;;;;;;3.45;1.00;;;11.30;49.40;;;;;;5013593;28;20226;-76
2021/01/22 05:49:56;;;;;;;1.35;0.88;;;11.40;49.70;;;;;;5013235;28;20208;-75
2021/01/22 05:52:23;;;;;;;1.02;0.93;;;11.40;48.90;;;;;;5013110;28;20696;-75
2021/01/22 05:54:50;;;;;;;1.15;0.80;;;11.40;49.40;;;;;;5013943;28;20244;-74
2021/01/22 05:57:17;;;;;;;3.78;0.90;;;11.50;48.80;;;;;;5014964;28;20310;-79
2021/01/22 05:59:43;;;;;;;1.17;0.70;;;11.50;49.10;;;;;;5013891;28;20203;-74
2021/01/22 06:02:25;;;;;;;5.03;0.85;;;11.60;48.10;;;;;;5014181;28;20200;-74
2021/01/22 06:05:11;;;;;;;2.15;0.90;;;11.70;48.00;;;;;;5013482;28;20234;-75
2021/01/22 06:07:39;;;;;;;2.55;0.90;;;11.70;48.20;;;;;;5013838;28;20214;-74
2021/01/22 06:10:16;;;;;;;4.15;1.00;;;11.70;47.50;;;;;;5013507;28;20211;-75
2021/01/22 06:12:47;;;;;;;1.45;1.00;;;11.70;47.20;;;;;;5013261;28;20211;-75
2021/01/22 06:15:16;;;;;;;2.10;1.25;;;11.70;48.10;;;;;;5012465;28;20232;-74
2021/01/22 06:17:46;;;;;;;2.15;0.80;;;11.60;48.80;;;;;;5014055;28;20207;-75
2021/01/22 06:20:15;;;;;;;1.45;0.95;;;11.50;48.70;;;;;;5012607;28;20556;-78
2021/01/22 06:22:51;;;;;;;4.65;0.90;;;11.50;48.40;;;;;;5013362;28;20208;-75
2021/01/22 06:25:18;;;;;;;2.13;0.82;;;11.50;48.30;;;;;;5013092;28;20346;-76
2021/01/22 06:27:47;;;;;;;5.20;0.98;;;11.60;48.20;;;;;;5013749;28;20314;-77
2021/01/22 06:30:15;;;;;;;1.52;0.88;;;11.50;48.20;;;;;;5013010;28;20216;-74
2021/01/22 06:32:42;;;;;;;1.60;0.70;;;11.50;47.90;;;;;;5013846;28;20794;-76
2021/01/22 06:35:10;;;;;;;0.98;0.65;;;11.60;48.40;;;;;;5012830;28;20659;-75
2021/01/22 06:37:42;;;;;;;1.20;0.82;;;11.50;47.70;;;;;;5015521;28;20216;-77
2021/01/22 06:40:10;;;;;;;2.10;0.90;;;11.60;47.70;;;;;;5016793;28;20242;-75
2021/01/22 06:42:39;;;;;;;2.70;0.93;;;11.60;47.00;;;;;;5015015;28;20243;-74
2021/01/22 06:45:07;;;;;;;2.65;1.30;;;11.60;47.10;;;;;;5014318;28;20227;-77
2021/01/22 06:47:34;;;;;;;2.38;1.50;;;11.70;46.60;;;;;;5014956;28;20230;-77
2021/01/22 06:50:01;;;;;;;0.80;0.75;;;11.70;46.00;;;;;;5014465;28;20842;-78
2021/01/22 06:52:27;;;;;;;4.35;1.20;;;11.80;46.60;;;;;;5014112;28;20207;-77
2021/01/22 06:55:05;;;;;;;5.00;1.27;;;11.80;46.10;;;;;;5012712;28;20547;-75
2021/01/22 06:57:31;;;;;;;4.72;1.40;;;11.90;45.50;;;;;;5012076;28;20803;-74
2021/01/22 06:59:59;;;;;;;2.53;1.23;;;12.00;44.50;;;;;;5011897;28;20207;-74
2021/01/22 07:02:40;;;;;;;2.67;1.13;;;11.90;44.70;;;;;;5011802;28;20690;-79
2021/01/22 07:05:43;;;;;;;1.95;1.23;;;12.00;44.40;;;;;;4991829;28;20600;-76
2021/01/22 07:08:11;;;;;;;2.75;1.00;;;12.00;44.90;;;;;;4998892;28;20223;-76
2021/01/22 07:11:03;;;;;;;3.85;1.35;;;11.90;45.90;;;;;;5014858;28;20254;-77
2021/01/22 07:13:34;;;;;;;2.95;0.80;;;11.80;45.60;;;;;;5014334;28;20283;-77
2021/01/22 07:16:01;;;;;;;2.53;1.20;;;11.70;45.40;;;;;;5016425;28;20295;-77
2021/01/22 07:18:28;;;;;;;2.95;1.10;;;11.80;44.90;;;;;;5019297;28;20638;-77
2021/01/22 07:21:19;;;;;;;4.85;1.30;;;11.90;44.70;;;;;;5033211;28;20246;-75
2021/01/22 07:23:46;;;;;;;3.35;1.38;;;12.00;43.30;;;;;;5034671;28;20246;-76
2021/01/22 07:26:14;;;;;;;6.97;1.40;;;12.10;41.50;;;;;;5033772;28;20195;-74
2021/01/22 07:28:49;;;;;;;2.42;0.85;;;12.20;41.60;;;;;;5034095;28;20243;-75
2021/01/22 07:32:04;;;;;;;2.58;1.20;;;12.20;41.90;;;;;;5017947;28;20243;-76
2021/01/22 07:34:47;;;;;;;3.40;0.80;;;12.30;41.60;;;;;;4975211;28;20730;-76
2021/01/22 07:37:19;;;;;;;3.65;0.90;;;12.40;41.70;;;;;;4975166;28;20348;-75
2021/01/22 07:39:46;;;;;;;3.42;1.40;;;12.40;41.50;;;;;;4981385;28;20305;-77
2021/01/22 07:42:14;;;;;;;3.53;1.33;;;12.40;41.50;;;;;;4980057;28;20311;-75
2021/01/22 07:44:42;;;;;;;3.92;0.90;;;12.40;40.50;;;;;;4975708;28;20249;-76
2021/01/22 07:47:10;;;;;;;2.22;1.10;;;12.50;40.10;;;;;;4975133;28;20689;-77
2021/01/22 07:49:52;;;;;;;3.47;1.20;;;12.50;40.00;;;;;;4974819;28;20300;-77
2021/01/22 07:52:19;;;;;;;1.95;1.25;;;12.60;39.80;;;;;;4974228;28;20205;-76
2021/01/22 07:54:46;;;;;;;3.25;1.00;;;12.60;39.80;;;;;;4974510;28;20308;-76
2021/01/22 07:57:17;;;;;;;3.13;0.95;;;12.50;39.20;;;;;;4974927;28;20568;-77
2021/01/22 07:59:44;;;;;;;4.32;1.15;;;12.60;39.90;;;;;;4977183;28;20208;-76
2021/01/22 08:02:12;;;;;;;4.97;1.40;;;12.60;38.90;;;;;;4978976;28;20264;-74
2021/01/22 08:04:38;;;;;;;1.92;1.38;;;12.60;39.30;;;;;;4988835;28;20231;-76
2021/01/22 08:07:05;;;;;;;5.47;1.45;;;12.70;38.90;;;;;;5017555;28;20300;-74
2021/01/22 08:09:31;;;;;;;3.70;1.30;;;12.70;38.40;;;;;;5020789;28;20242;-78
2021/01/22 08:12:07;;;;;;;2.92;1.38;;;12.80;38.00;;;;;;5028987;28;20202;-76
2021/01/22 08:14:35;;;;;;;4.10;1.20;;;12.80;38.50;;;;;;5018546;28;20247;-76
2021/01/22 08:17:04;;;;;;;3.92;1.38;;;12.80;37.70;;;;;;5018839;28;20766;-77
2021/01/22 08:19:32;;;;;;;6.93;0.80;;;12.80;37.80;;;;;;5017960;28;20624;-76
2021/01/22 08:21:59;;;;;;;6.07;1.20;;;12.80;37.80;;;;;;5022918;28;20203;-76
2021/01/22 08:24:25;;;;;;;4.55;1.50;;;12.80;38.10;;;;;;5029131;28;20228;-75
2021/01/22 08:27:00;;;;;;;7.35;1.27;;;12.80;37.80;;;;;;5032036;28;20280;-76
2021/01/22 08:29:28;;;;;;;2.25;1.33;;;12.90;37.80;;;;;;5023069;28;20234;-76
2021/01/22 08:31:56;;;;;;;3.58;1.10;;;12.90;37.80;;;;;;5022866;28;20231;-77
2021/01/22 08:34:24;;;;;;;3.30;1.05;;;12.90;37.30;;;;;;5022268;28;20231;-77
2021/01/22 08:36:51;;;;;;;3.58;0.95;;;13.00;37.30;;;;;;5022102;28;20235;-77
2021/01/22 08:39:18;;;;;;;3.38;1.10;;;13.00;38.10;;;;;;5017994;28;20295;-77
2021/01/22 08:41:45;;;;;;;7.63;1.35;;;13.00;37.30;;;;;;5018087;28;20211;-76
2021/01/22 08:44:11;;;;;;;6.40;1.65;;;13.00;37.30;;;;;;5015698;28;20735;-75
2021/01/22 08:46:48;;;;;;;7.45;1.10;;;13.10;37.10;;;;;;5015621;28;20290;-77
2021/01/22 08:49:16;;;;;;;2.90;1.27;;;13.10;37.40;;;;;;5015649;28;20392;-76
2021/01/22 08:51:43;;;;;;;3.90;1.40;;;13.10;37.40;;;;;;5015802;28;20218;-74
2021/01/22 08:54:10;;;;;;;5.28;1.55;;;13.10;37.70;;;;;;5014709;28;20310;-76
2021/01/22 08:56:37;;;;;;;4.40;1.45;;;13.10;37.90;;;;;;5018935;28;20295;-79
2021/01/22 08:59:06;;;;;;;3.78;0.95;;;13.10;37.80;;;;;;5021366;28;20196;-74
2021/01/22 09:01:53;;;;;;;8.95;1.70;;;13.00;38.40;;;;;;5019771;28;20240;-77
2021/01/22 09:04:25;;;;;;;3.88;1.08;;;13.10;38.80;;;;;;5016788;28;20238;-76
2021/01/22 09:06:53;;;;;;;4.50;1.55;;;13.00;39.70;;;;;;5021296;28;20268;-74
2021/01/22 09:09:40;;;;;;;3.50;1.38;;;13.00;41.40;;;;;;5019540;28;20228;-76
2021/01/22 09:12:14;;;;;;;4.63;1.33;;;12.90;42.00;;;;;;5021785;28;20199;-77
2021/01/22 09:15:03;;;;;;;3.13;1.60;;;12.80;42.10;;;;;;5023102;28;20235;-75
2021/01/22 09:17:36;;;;;;;3.40;1.30;;;12.60;41.90;;;;;;5016483;28;20311;-76
2021/01/22 09:20:08;;;;;;;1.70;0.90;;;12.60;41.90;;;;;;5019831;28;20246;-76
2021/01/22 09:22:35;;;;;;;2.85;1.23;;;12.60;42.70;;;;;;5017207;28;20243;-76
2021/01/22 09:25:11;;;;;;;5.10;1.83;;;12.60;41.90;;;;;;5026018;28;20289;-79
2021/01/22 09:27:39;;;;;;;3.35;1.10;;;12.70;42.00;;;;;;5020799;28;20224;-75
2021/01/22 09:30:07;;;;;;;1.67;0.98;;;12.80;42.10;;;;;;5016795;28;20320;-79
2021/01/22 09:32:34;;;;;;;2.45;1.15;;;12.90;42.20;;;;;;5017476;28;20687;-75
2021/01/22 09:35:01;;;;;;;3.47;1.67;;;12.90;42.20;;;;;;5018541;28;20255;-76
2021/01/22 09:37:28;;;;;;;10.27;1.98;;;13.00;42.30;;;;;;5023103;28;20250;-77
2021/01/22 09:39:54;;;;;;;2.92;1.30;;;13.10;42.40;;;;;;5021955;28;20270;-78
2021/01/22 09:42:21;;;;;;;3.75;1.20;;;13.20;42.50;;;;;;5026506;28;20214;-78
2021/01/22 09:44:47;;;;;;;3.10;0.80;;;13.20;41.30;;;;;;5030161;28;20318;-78
2021/01/22 09:47:13;;;;;;;2.45;0.70;;;13.10;41.30;;;;;;5029692;28;20234;-76
2021/01/22 09:49:40;;;;;;;4.90;1.10;;;13.10;42.40;;;;;;5030475;28;20204;-78
2021/01/22 09:52:06;;;;;;;3.42;0.98;;;13.10;42.40;;;;;;5016028;28;20208;-78
2021/01/22 09:54:34;;;;;;;3.65;2.10;;;12.90;42.20;;;;;;5010506;28;20232;-78
2021/01/22 09:57:00;;;;;;;3.25;1.08;;;13.00;42.30;;;;;;5020842;28;20208;-78
2021/01/22 09:59:27;;;;;;;1.55;0.95;;;13.10;42.40;;;;;;5026335;28;20226;-82
2021/01/22 10:01:53;;;;;;;1.63;0.95;;;13.10;40.60;;;;;;5024005;28;20261;-79
2021/01/22 10:04:19;;;;;;;2.25;0.98;;;13.30;40.30;;;;;;5023541;28;20251;-78
2021/01/22 10:06:46;;;;;;;2.35;1.00;;;13.30;40.40;;;;;;5023972;28;20222;-80
2021/01/22 10:09:12;;;;;;;1.98;1.27;;;13.30;40.40;;;;;;5018891;28;20312;-77
2021/01/22 10:11:40;;;;;;;3.08;1.30;;;13.30;39.90;;;;;;5019808;28;20235;-76
2021/01/22 10:14:07;;;;;;;3.17;1.17;;;13.30;41.30;;;;;;5028990;28;20242;-76
2021/01/22 10:16:34;;;;;;;4.68;1.48;;;13.30;42.60;;;;;;5025360;28;20243;-77
2021/01/22 10:19:01;;;;;;;4.60;1.77;;;13.20;42.50;;;;;;5023771;28;20219;-76
2021/01/22 10:21:27;;;;;;;4.30;1.15;;;13.10;42.40;;;;;;5023764;28;20204;-76
2021/01/22 10:23:54;;;;;;;1.35;0.93;;;13.10;42.40;;;;;;5029900;28;20220;-77
2021/01/22 10:26:22;;;;;;;2.85;1.50;;;13.10;43.00;;;;;;5029895;28;20303;-75
2021/01/22 10:28:50;;;;;;;2.90;1.20;;;13.00;44.30;;;;;;5032142;28;20238;-76
2021/01/22 10:31:17;;;;;;;1.95;1.15;;;12.90;45.10;;;;;;5032378;28;20208;-75
2021/01/22 10:33:43;;;;;;;2.78;1.20;;;12.90;45.70;;;;;;5034276;28;20255;-75
2021/01/22 10:36:10;;;;;;;2.72;1.10;;;12.90;45.10;;;;;;5034721;28;20195;-76
2021/01/22 10:38:37;;;;;;;2.92;1.65;;;12.90;46.00;;;;;;5033665;28;20212;-79
2021/01/22 10:41:04;;;;;;;4.50;1.23;;;13.00;44.20;;;;;;5034648;28;20200;-78
2021/01/22 10:43:31;;;;;;;2.63;1.20;;;13.20;44.40;;;;;;5033226;28;20281;-76
2021/01/22 10:45:59;;;;;;;7.10;1.85;;;13.40;42.70;;;;;;5026684;28;20200;-77
2021/01/22 10:48:26;;;;;;;2.88;1.45;;;13.60;42.90;;;;;;5015914;28;20232;-76
2021/01/22 10:50:54;;;;;;;2.30;0.90;;;13.70;43.00;;;;;;5017808;28;20196;-76
2021/01/22 10:53:20;;;;;;;3.38;1.17;;;13.90;41.00;;;;;;5016421;28;20231;-77
2021/01/22 10:55:48;;;;;;;2.65;1.20;;;13.80;40.50;;;;;;5040450;23;20240;-79
2021/01/22 10:58:14;;;;;;;1.85;1.10;;;14.00;40.30;;;;;;5004960;28;20614;-83
2021/01/22 11:00:41;;;;;;;2.60;1.40;;;14.10;39.40;;;;;;5006795;28;20208;-82
2021/01/22 11:03:09;;;;;;;2.53;1.20;;;14.00;39.60;;;;;;5022734;28;20786;-81
2021/01/22 11:05:36;;;;;;;1.77;1.23;;;14.00;39.10;;;;;;5014651;28;20284;-78
2021/01/22 11:08:03;;;;;;;2.63;1.10;;;14.10;38.50;;;;;;5012874;28;20696;-80
2021/01/22 11:10:29;;;;;;;1.38;1.08;;;14.10;38.70;;;;;;5009340;28;20239;-84
2021/01/22 11:12:56;;;;;;;4.05;1.40;;;14.00;38.20;;;;;;5012136;28;20177;-79
2021/01/22 11:15:23;;;;;;;1.88;1.08;;;13.90;38.70;;;;;;5001645;28;20213;-83
2021/01/22 11:17:49;;;;;;;1.48;1.00;;;13.90;39.10;;;;;;4993558;28;20201;-81
2021/01/22 11:20:18;;;;;;;2.13;1.48;;;13.80;38.90;;;;;;5000256;28;20204;-78
2021/01/22 11:22:46;;;;;;;1.75;1.20;;;13.80;39.50;;;;;;5006916;28;20208;-80
2021/01/22 11:28:40;;;;;;;0.98;0.77;;;11.50;45.00;;;;;;5001857;28;20212;-79
2021/01/22 11:31:06;;;;;;;1.42;1.10;;;9.70;51.10;;;;;;4982255;28;20205;-80
2021/01/22 11:33:33;;;;;;;1.02;0.70;;;8.90;55.30;;;;;;4981856;28;20189;-78
2021/01/22 11:36:01;;;;;;;0.70;0.70;;;8.60;56.50;;;;;;4981622;28;20286;-79
2021/01/22 11:38:27;;;;;;;0.77;0.60;;;7.90;57.90;;;;;;4982073;28;20273;-79
2021/01/22 11:40:55;;;;;;;1.15;0.80;;;7.50;62.00;;;;;;4998628;28;20200;-80
2021/01/22 11:43:22;;;;;;;0.73;0.73;;;7.10;64.70;;;;;;4991326;28;20220;-79
2021/01/22 11:45:48;;;;;;;0.60;0.60;;;6.80;67.50;;;;;;4997571;28;20588;-78
2021/01/22 11:48:16;;;;;;;0.95;0.77;;;6.60;69.60;;;;;;4991531;28;20252;-80
2021/01/22 11:50:42;;;;;;;0.70;0.70;;;6.60;71.20;;;;;;5003525;28;20271;-81
2021/01/22 11:53:46;;;;;;;0.70;0.70;;;6.60;72.30;;;;;;5011212;28;20216;-79
2021/01/22 11:56:14;;;;;;;0.93;0.88;;;6.40;74.20;;;;;;5013973;28;20215;-81
2021/01/22 11:58:42;;;;;;;0.98;0.82;;;6.00;77.00;;;;;;5003316;28;20592;-81
2021/01/22 12:01:13;;;;;;;1.00;0.70;;;5.80;80.50;;;;;;5006575;28;20212;-82
2021/01/22 12:03:46;;;;;;;1.65;0.65;;;5.90;82.20;;;;;;5007074;28;20255;-82
2021/01/22 12:06:17;;;;;;;0.75;0.75;;;5.90;81.50;;;;;;5001890;28;20674;-81
2021/01/22 12:09:08;;;;;;;1.15;0.90;;;5.80;81.80;;;;;;5002907;28;20228;-81
2021/01/22 12:11:34;;;;;;;0.77;0.77;;;5.80;81.10;;;;;;5007043;28;20188;-78
2021/01/22 12:14:01;;;;;;;0.65;0.60;;;5.80;81.10;;;;;;5016964;28;20247;-78
2021/01/22 12:16:27;;;;;;;0.73;0.73;;;5.90;82.00;;;;;;5002416;28;20266;-79
2021/01/22 12:18:54;;;;;;;0.70;0.70;;;6.00;81.60;;;;;;4993515;28;20256;-80
2021/01/22 12:21:20;;;;;;;0.77;0.77;;;6.00;80.40;;;;;;5005148;28;20239;-79
2021/01/22 12:23:48;;;;;;;0.82;0.70;;;6.10;80.60;;;;;;5008351;28;20208;-81
2021/01/22 12:26:14;;;;;;;0.60;0.60;;;6.00;79.70;;;;;;5009416;28;20199;-77
2021/01/22 12:28:41;;;;;;;0.60;0.60;;;6.10;80.10;;;;;;5015707;28;20230;-76
2021/01/22 12:31:08;;;;;;;1.45;0.70;;;5.90;76.60;;;;;;5017585;28;20193;-78
2021/01/22 12:33:35;;;;;;;0.60;0.60;;;5.80;79.50;;;;;;5019400;28;20188;-78
2021/01/22 12:36:02;;;;;;;1.90;1.48;;;5.80;80.40;;;;;;5002136;28;20290;-81
2021/01/22 12:38:29;;;;;;;1.67;1.58;;;5.80;81.00;;;;;;5011616;28;20343;-80
2021/01/22 12:40:56;;;;;;;4.20;1.27;;;5.80;82.10;;;;;;5011386;28;20228;-80
2021/01/22 12:46:50;;;;;;;1.73;1.63;;;5.60;81.90;;;;;;5006043;28;20176;-81
2021/01/22 12:49:38;;;;;;;1.40;1.30;;;5.50;82.80;;;;;;4990628;28;20207;-79
2021/01/22 12:52:23;;;;;;;3.22;1.77;;;5.40;83.90;;;;;;4990850;28;20208;-79
2021/01/22 12:54:50;;;;;;;1.55;1.45;;;5.40;85.80;;;;;;4985155;28;20232;-82
2021/01/22 13:00:51;;;;;;;3.60;1.40;;;5.30;85.90;;;;;;5015829;28;20208;-78
2021/01/22 13:03:20;;;;;;;1.80;1.70;;;5.30;86.70;;;;;;5007379;28;20198;-79
2021/01/22 13:05:46;;;;;;;1.70;1.60;;;5.40;88.00;;;;;;4993564;28;20232;-80